createdAt,value
2023-04-25T00:00:10.494Z,12.00
2023-04-25T00:02:42.796Z,11.96
2023-04-25T00:05:12.064Z,11.93
2023-04-25T00:07:43.304Z,11.91
2023-04-25T00:10:13.224Z,11.88
2023-04-25T00:12:42.750Z,11.91
2023-04-25T00:15:12.667Z,11.95
2023-04-25T00:17:41.164Z,11.96
2023-04-25T00:20:11.355Z,11.93
2023-04-25T00:22:42.475Z,11.92
2023-04-25T00:25:11.724Z,11.88
2023-04-25T00:27:40.603Z,11.94
2023-04-25T00:30:10.697Z,11.94
2023-04-25T00:32:39.882Z,11.90
2023-04-25T00:35:09.172Z,11.88
2023-04-25T00:37:38.268Z,11.84
2023-04-25T00:40:09.903Z,11.85
2023-04-25T00:42:40.131Z,11.83
2023-04-25T00:45:12.961Z,11.83
2023-04-25T00:47:42.856Z,11.79
2023-04-25T00:50:11.924Z,11.78
2023-04-25T00:52:46.096Z,11.76
2023-04-25T00:55:17.089Z,11.79
2023-04-25T00:57:46.076Z,11.82
2023-04-25T01:00:15.975Z,11.79
2023-04-25T01:02:48.056Z,11.81
2023-04-25T01:05:16.972Z,11.79
2023-04-25T01:07:46.143Z,11.77
2023-04-25T01:10:17.084Z,11.75
2023-04-25T01:12:45.911Z,11.75
2023-04-25T01:15:15.150Z,11.75
2023-04-25T01:17:45.505Z,11.77
2023-04-25T01:20:16.448Z,11.80
2023-04-25T01:22:47.450Z,11.80
2023-04-25T01:25:18.464Z,11.73
2023-04-25T01:27:48.324Z,11.80
2023-04-25T01:30:18.026Z,11.82
2023-04-25T01:32:47.185Z,11.73
2023-04-25T01:35:16.469Z,11.73
2023-04-25T01:37:47.662Z,11.70
2023-04-25T01:40:17.152Z,11.67
2023-04-25T01:42:47.444Z,11.68
2023-04-25T01:45:16.787Z,11.66
2023-04-25T01:47:50.328Z,11.60
2023-04-25T01:50:21.303Z,11.57
2023-04-25T01:52:53.036Z,11.56
2023-04-25T01:55:22.355Z,11.56
2023-04-25T01:57:59.737Z,11.57
2023-04-25T02:00:44.571Z,11.57
2023-04-25T02:03:13.496Z,11.55
2023-04-25T02:05:42.693Z,11.53
2023-04-25T02:08:16.423Z,11.53
2023-04-25T02:10:45.395Z,11.54
2023-04-25T02:13:20.262Z,11.51
2023-04-25T02:15:59.658Z,11.48
2023-04-25T02:18:28.797Z,11.47
2023-04-25T02:20:57.660Z,11.46
2023-04-25T02:23:28.073Z,11.43
2023-04-25T02:25:58.539Z,11.42
2023-04-25T02:28:28.115Z,11.40
2023-04-25T02:30:57.249Z,11.39
2023-04-25T02:33:27.235Z,11.37
2023-04-25T02:35:56.115Z,11.33
2023-04-25T02:38:24.950Z,11.32
2023-04-25T02:40:55.124Z,11.33
2023-04-25T02:43:24.606Z,11.32
2023-04-25T02:45:54.755Z,11.30
2023-04-25T02:48:23.577Z,11.27
2023-04-25T02:50:52.408Z,11.27
2023-04-25T02:53:21.272Z,11.23
2023-04-25T02:55:53.983Z,11.21
2023-04-25T02:58:24.444Z,11.21
2023-04-25T03:00:56.099Z,11.13
2023-04-25T03:03:25.272Z,11.13
2023-04-25T03:05:54.861Z,11.09
2023-04-25T03:08:33.537Z,11.06
2023-04-25T03:11:03.304Z,11.06
2023-04-25T03:13:33.454Z,11.06
2023-04-25T03:16:02.519Z,11.07
2023-04-25T03:18:32.764Z,11.09
2023-04-25T03:21:01.886Z,11.12
2023-04-25T03:23:30.649Z,11.11
2023-04-25T03:25:59.532Z,11.10
2023-04-25T03:28:28.296Z,11.13
2023-04-25T03:31:00.318Z,11.17
2023-04-25T03:33:29.214Z,11.21
2023-04-25T03:35:58.017Z,11.20
2023-04-25T03:38:27.575Z,11.18
2023-04-25T03:40:57.442Z,11.15
2023-04-25T03:43:34.823Z,11.14
2023-04-25T03:46:10.217Z,11.12
2023-04-25T03:48:40.139Z,11.12
2023-04-25T03:51:11.401Z,11.11
2023-04-25T03:53:44.605Z,11.09
2023-04-25T03:56:24.672Z,11.05
2023-04-25T03:59:02.206Z,11.05
2023-04-25T04:01:34.208Z,11.05
2023-04-25T04:04:03.086Z,11.01
2023-04-25T04:06:32.135Z,11.02
2023-04-25T04:09:12.404Z,11.04
2023-04-25T04:11:46.358Z,11.05
2023-04-25T04:14:15.594Z,11.02
2023-04-25T04:16:49.109Z,10.99
2023-04-25T04:19:18.135Z,11.01
2023-04-25T04:21:54.043Z,10.99
2023-04-25T04:24:23.369Z,11.00
2023-04-25T04:26:58.152Z,11.02
2023-04-25T04:29:38.206Z,10.99
2023-04-25T04:32:15.018Z,10.97
2023-04-25T04:34:45.005Z,11.00
2023-04-25T04:37:17.704Z,10.97
2023-04-25T04:39:46.696Z,10.96
2023-04-25T04:42:26.576Z,10.94
2023-04-25T04:45:07.387Z,10.94
2023-04-25T04:47:57.922Z,10.98
2023-04-25T04:50:37.961Z,10.95
2023-04-25T04:53:29.772Z,10.98
2023-04-25T04:56:11.287Z,10.98
2023-04-25T04:58:51.589Z,10.99
2023-04-25T05:01:37.591Z,10.99
2023-04-25T05:04:13.774Z,10.99
2023-04-25T05:06:54.166Z,11.04
2023-04-25T05:09:43.520Z,10.98
2023-04-25T05:12:23.401Z,10.97
2023-04-25T05:15:03.376Z,10.98
2023-04-25T05:17:44.712Z,11.00
2023-04-25T05:20:40.912Z,11.01
2023-04-25T05:23:36.056Z,11.02
2023-04-25T05:26:25.127Z,11.10
2023-04-25T05:29:14.274Z,11.13
2023-04-25T05:31:54.229Z,11.17
2023-04-25T05:34:22.739Z,11.16
2023-04-25T05:37:01.419Z,11.20
2023-04-25T05:39:31.267Z,11.25
2023-04-25T05:42:11.595Z,11.28
2023-04-25T05:44:51.424Z,11.30
2023-04-25T05:47:46.487Z,11.30
2023-04-25T05:50:27.005Z,11.34
2023-04-25T05:53:00.356Z,11.36
2023-04-25T05:55:34.824Z,11.41
2023-04-25T05:58:13.167Z,11.48
2023-04-25T06:00:43.170Z,11.53
2023-04-25T06:03:12.124Z,11.54
2023-04-25T06:05:41.214Z,11.59
2023-04-25T06:08:12.255Z,11.59
2023-04-25T06:10:41.130Z,11.67
2023-04-25T06:13:09.835Z,11.68
2023-04-25T06:15:39.268Z,11.74
2023-04-25T06:18:08.197Z,11.78
2023-04-25T06:20:37.151Z,11.84
2023-04-25T06:23:05.997Z,11.85
2023-04-25T06:25:50.443Z,11.88
2023-04-25T06:28:19.699Z,11.92
2023-04-25T06:30:48.559Z,11.96
2023-04-25T06:33:21.351Z,12.01
2023-04-25T06:35:51.957Z,12.04
2023-04-25T06:38:25.885Z,12.03
2023-04-25T06:40:57.943Z,11.98
2023-04-25T06:43:29.987Z,12.04
2023-04-25T06:45:58.833Z,12.09
2023-04-25T06:48:31.357Z,12.08
2023-04-25T06:51:01.199Z,12.08
2023-04-25T06:53:30.515Z,12.01
2023-04-25T06:56:05.725Z,11.93
2023-04-25T06:58:48.248Z,11.79
2023-04-25T07:01:24.996Z,11.75
2023-04-25T07:03:53.958Z,11.68
2023-04-25T07:06:22.969Z,11.63
2023-04-25T07:08:51.944Z,11.65
2023-04-25T07:11:22.351Z,11.61
2023-04-25T07:13:51.471Z,11.57
2023-04-25T07:16:20.255Z,11.64
2023-04-25T07:18:50.292Z,11.70
2023-04-25T07:21:19.286Z,11.76
2023-04-25T07:23:49.980Z,11.79
2023-04-25T07:26:24.621Z,11.79
2023-04-25T07:29:19.652Z,11.74
2023-04-25T07:31:48.686Z,11.77
2023-04-25T07:34:17.300Z,11.62
2023-04-25T07:36:46.953Z,11.63
2023-04-25T07:39:21.138Z,11.60
2023-04-25T07:41:55.636Z,11.61
2023-04-25T07:44:31.828Z,11.58
2023-04-25T07:47:02.447Z,11.61
2023-04-25T07:49:33.535Z,11.71
2023-04-25T07:52:03.191Z,11.76
2023-04-25T07:54:32.259Z,11.71
2023-04-25T07:57:08.794Z,11.63
2023-04-25T07:59:39.093Z,11.66
2023-04-25T08:02:08.406Z,11.58
2023-04-25T08:04:37.541Z,11.55
2023-04-25T08:07:10.846Z,11.60
2023-04-25T08:09:50.990Z,11.70
2023-04-25T08:12:28.230Z,11.68
2023-04-25T08:14:58.415Z,11.73
2023-04-25T08:17:30.869Z,11.55
2023-04-25T08:19:59.755Z,11.68
2023-04-25T08:22:32.967Z,11.77
2023-04-25T08:25:27.992Z,11.97
2023-04-25T08:28:00.640Z,12.04
2023-04-25T08:30:29.789Z,12.10
2023-04-25T08:32:58.952Z,12.22
2023-04-25T08:35:38.773Z,12.30
2023-04-25T08:38:08.981Z,12.44
2023-04-25T08:40:41.271Z,12.55
2023-04-25T08:43:16.640Z,12.58
2023-04-25T08:45:47.315Z,12.49
2023-04-25T08:48:29.113Z,12.48
2023-04-25T08:51:01.048Z,12.59
2023-04-25T08:53:34.008Z,12.56
2023-04-25T08:56:10.593Z,12.60
2023-04-25T08:58:41.211Z,12.63
2023-04-25T09:01:10.728Z,12.63
2023-04-25T09:03:49.262Z,12.67
2023-04-25T09:06:20.344Z,12.66
2023-04-25T09:08:52.907Z,12.65
2023-04-25T09:11:23.477Z,12.75
2023-04-25T09:14:14.499Z,12.78
2023-04-25T09:17:09.121Z,12.82
2023-04-25T09:19:45.558Z,12.97
2023-04-25T09:22:34.849Z,13.10
2023-04-25T09:25:08.145Z,13.04
2023-04-25T09:27:37.054Z,12.94
2023-04-25T09:30:18.996Z,13.03
2023-04-25T09:32:59.733Z,13.19
2023-04-25T09:35:28.918Z,13.23
2023-04-25T09:38:01.862Z,13.14
2023-04-25T09:40:44.440Z,13.06
2023-04-25T09:43:25.467Z,13.07
2023-04-25T09:45:59.221Z,13.23
2023-04-25T09:48:32.222Z,13.34
2023-04-25T09:51:10.585Z,13.39
2023-04-25T09:53:41.827Z,13.42
2023-04-25T09:56:22.542Z,13.38
2023-04-25T09:58:56.198Z,13.28
2023-04-25T10:01:28.719Z,13.13
2023-04-25T10:04:23.265Z,13.23
2023-04-25T10:07:02.012Z,13.27
2023-04-25T10:09:35.076Z,13.32
2023-04-25T10:12:05.278Z,13.50
2023-04-25T10:14:34.338Z,13.53
2023-04-25T10:17:05.456Z,13.57
2023-04-25T10:19:34.821Z,13.56
2023-04-25T10:22:11.305Z,13.61
2023-04-25T10:24:40.935Z,13.77
2023-04-25T10:27:10.424Z,13.93
2023-04-25T10:29:39.149Z,13.86
2023-04-25T10:32:10.347Z,13.78
2023-04-25T10:34:44.047Z,13.95
2023-04-25T10:37:13.183Z,14.12
2023-04-25T10:39:43.146Z,14.21
2023-04-25T10:42:12.233Z,14.05
2023-04-25T10:44:41.821Z,14.08
2023-04-25T10:47:12.093Z,14.18
2023-04-25T10:49:44.948Z,14.16
2023-04-25T10:52:27.100Z,14.29
2023-04-25T10:54:58.466Z,14.49
2023-04-25T10:57:32.187Z,14.64
2023-04-25T11:00:04.930Z,14.70
2023-04-25T11:02:40.527Z,14.68
2023-04-25T11:05:11.040Z,14.64
2023-04-25T11:08:00.075Z,14.87
2023-04-25T11:10:37.707Z,15.14
2023-04-25T11:13:07.636Z,15.31
2023-04-25T11:15:36.404Z,15.32
2023-04-25T11:18:10.278Z,15.16
2023-04-25T11:20:39.219Z,14.78
2023-04-25T11:23:08.260Z,14.80
2023-04-25T11:25:38.746Z,14.93
2023-04-25T11:28:08.072Z,15.21
2023-04-25T11:30:36.721Z,15.01
2023-04-25T11:33:07.063Z,15.05
2023-04-25T11:35:35.927Z,15.10
2023-04-25T11:38:04.716Z,15.29
2023-04-25T11:40:33.931Z,15.25
2023-04-25T11:43:03.558Z,15.05
2023-04-25T11:45:33.239Z,15.28
2023-04-25T11:48:03.843Z,15.40
2023-04-25T11:50:34.225Z,15.48
2023-04-25T11:53:03.136Z,15.02
2023-04-25T11:55:33.366Z,15.13
2023-04-25T11:58:03.446Z,15.29
2023-04-25T12:00:32.493Z,15.32
2023-04-25T12:03:01.794Z,15.59
2023-04-25T12:05:34.975Z,15.95
2023-04-25T12:08:17.165Z,16.29
2023-04-25T12:10:48.421Z,16.55
2023-04-25T12:13:24.841Z,16.62
2023-04-25T12:15:54.080Z,16.58
2023-04-25T12:18:23.571Z,16.45
2023-04-25T12:20:52.134Z,16.41
2023-04-25T12:23:29.941Z,16.21
2023-04-25T12:25:58.976Z,16.19
2023-04-25T12:28:29.748Z,16.57
2023-04-25T12:31:00.802Z,16.85
2023-04-25T12:33:31.853Z,16.84
2023-04-25T12:36:01.409Z,16.82
2023-04-25T12:38:35.253Z,17.00
2023-04-25T12:41:04.103Z,16.74
2023-04-25T12:43:32.892Z,16.56
2023-04-25T12:46:01.834Z,16.58
2023-04-25T12:48:30.616Z,16.75
2023-04-25T12:50:59.362Z,16.96
2023-04-25T12:53:28.397Z,16.70
2023-04-25T12:55:59.117Z,16.36
2023-04-25T12:58:27.993Z,16.36
2023-04-25T13:00:56.686Z,16.19
2023-04-25T13:03:25.878Z,15.87
2023-04-25T13:05:55.562Z,15.74
2023-04-25T13:08:24.115Z,15.73
2023-04-25T13:10:52.802Z,15.73
2023-04-25T13:13:23.565Z,15.54
2023-04-25T13:15:52.605Z,15.44
2023-04-25T13:18:22.044Z,15.48
2023-04-25T13:20:51.100Z,15.50
2023-04-25T13:23:19.853Z,15.50
2023-04-25T13:25:48.835Z,15.50
2023-04-25T13:28:17.666Z,15.53
2023-04-25T13:30:49.183Z,15.44
2023-04-25T13:33:18.501Z,15.24
2023-04-25T13:35:48.140Z,15.23
2023-04-25T13:38:16.731Z,15.21
2023-04-25T13:40:45.754Z,15.18
2023-04-25T13:43:14.464Z,15.20
2023-04-25T13:45:43.416Z,15.19
2023-04-25T13:48:13.638Z,15.13
2023-04-25T13:50:42.535Z,15.07
2023-04-25T13:53:11.488Z,14.97
2023-04-25T13:55:40.870Z,14.89
2023-04-25T13:58:11.269Z,14.80
2023-04-25T14:00:41.604Z,14.73
2023-04-25T14:03:10.634Z,14.67
2023-04-25T14:05:41.389Z,14.60
2023-04-25T14:08:12.193Z,14.60
2023-04-25T14:10:41.368Z,14.62
2023-04-25T14:13:10.881Z,14.74
2023-04-25T14:15:40.254Z,14.91
2023-04-25T14:18:09.119Z,15.04
2023-04-25T14:20:38.029Z,15.15
2023-04-25T14:23:08.157Z,15.18
2023-04-25T14:25:38.186Z,15.12
2023-04-25T14:28:07.476Z,15.01
2023-04-25T14:30:36.266Z,14.92
2023-04-25T14:33:05.314Z,14.88
2023-04-25T14:35:34.145Z,14.84
2023-04-25T14:38:03.443Z,14.65
2023-04-25T14:40:33.620Z,14.57
2023-04-25T14:43:02.362Z,14.57
2023-04-25T14:45:31.191Z,14.49
2023-04-25T14:48:00.128Z,14.41
2023-04-25T14:50:28.917Z,14.40
2023-04-25T14:53:00.060Z,14.39
2023-04-25T14:55:29.115Z,14.41
2023-04-25T14:57:59.487Z,14.48
2023-04-25T15:00:28.411Z,14.61
2023-04-25T15:02:58.483Z,14.76
2023-04-25T15:05:27.585Z,15.00
2023-04-25T15:07:56.301Z,15.27
2023-04-25T15:10:25.176Z,15.31
2023-04-25T15:12:54.850Z,15.28
2023-04-25T15:15:26.757Z,15.23
2023-04-25T15:17:59.127Z,15.10
2023-04-25T15:20:28.810Z,14.99
2023-04-25T15:22:58.100Z,14.91
2023-04-25T15:25:28.321Z,14.91
2023-04-25T15:27:57.116Z,14.92
2023-04-25T15:30:27.484Z,14.88
2023-04-25T15:32:56.484Z,14.88
2023-04-25T15:35:25.300Z,14.91
2023-04-25T15:37:54.318Z,14.98
2023-04-25T15:40:23.137Z,14.94
2023-04-25T15:42:53.218Z,14.92
2023-04-25T15:45:26.430Z,14.96
2023-04-25T15:47:58.106Z,14.92
2023-04-25T15:50:27.503Z,14.94
2023-04-25T15:52:56.323Z,14.98
2023-04-25T15:55:27.109Z,15.00
2023-04-25T15:57:56.048Z,15.02
2023-04-25T16:00:24.921Z,15.02
2023-04-25T16:02:53.986Z,15.02
2023-04-25T16:05:24.431Z,14.97
2023-04-25T16:07:54.306Z,14.94
2023-04-25T16:10:23.093Z,14.89
2023-04-25T16:12:52.750Z,14.89
2023-04-25T16:15:21.682Z,14.68
2023-04-25T16:17:50.450Z,14.81
2023-04-25T16:20:19.326Z,14.82
2023-04-25T16:22:49.611Z,14.90
2023-04-25T16:25:18.546Z,14.98
2023-04-25T16:27:47.250Z,15.00
2023-04-25T16:30:16.303Z,15.00
2023-04-25T16:32:45.749Z,14.94
2023-04-25T16:35:14.974Z,14.86
2023-04-25T16:37:43.759Z,14.77
2023-04-25T16:40:14.513Z,14.72
2023-04-25T16:42:43.286Z,14.67
2023-04-25T16:45:13.373Z,14.63
2023-04-25T16:47:42.112Z,14.57
2023-04-25T16:50:11.578Z,14.55
2023-04-25T16:52:40.546Z,14.50
2023-04-25T16:55:10.853Z,14.45
2023-04-25T16:57:41.002Z,14.37
2023-04-25T17:00:11.146Z,14.29
2023-04-25T17:02:40.147Z,14.21
2023-04-25T17:05:09.673Z,14.18
2023-04-25T17:07:38.421Z,14.14
2023-04-25T17:10:07.732Z,14.10
2023-04-25T17:12:36.580Z,14.01
2023-04-25T17:15:08.047Z,13.95
2023-04-25T17:17:36.934Z,13.90
2023-04-25T17:20:07.712Z,13.85
2023-04-25T17:22:37.332Z,13.78
2023-04-25T17:25:07.185Z,13.71
2023-04-25T17:27:36.696Z,13.59
2023-04-25T17:30:08.588Z,13.44
2023-04-25T17:32:37.448Z,13.28
2023-04-25T17:35:07.045Z,13.14
2023-04-25T17:37:37.728Z,13.07
2023-04-25T17:40:12.260Z,12.82
2023-04-25T17:42:42.333Z,12.71
2023-04-25T17:45:13.960Z,12.69
2023-04-25T17:47:42.871Z,12.63
2023-04-25T17:50:12.908Z,12.66
2023-04-25T17:52:42.084Z,12.68
2023-04-25T17:55:11.157Z,12.68
2023-04-25T17:57:40.076Z,12.64
2023-04-25T18:00:12.201Z,12.59
2023-04-25T18:02:42.503Z,12.49
2023-04-25T18:05:11.743Z,12.40
2023-04-25T18:07:40.766Z,12.33
2023-04-25T18:10:12.269Z,12.17
2023-04-25T18:12:41.138Z,12.04
2023-04-25T18:15:11.050Z,11.99
2023-04-25T18:17:41.671Z,11.94
2023-04-25T18:20:15.289Z,11.92
2023-04-25T18:22:46.746Z,11.88
2023-04-25T18:25:15.678Z,11.85
2023-04-25T18:27:45.189Z,11.82
2023-04-25T18:30:14.768Z,11.82
2023-04-25T18:32:44.976Z,11.74
2023-04-25T18:35:14.473Z,11.70
2023-04-25T18:37:43.230Z,11.61
2023-04-25T18:40:14.283Z,11.53
2023-04-25T18:42:43.794Z,11.56
2023-04-25T18:45:13.231Z,11.60
2023-04-25T18:47:42.127Z,11.64
2023-04-25T18:50:13.108Z,11.60
2023-04-25T18:52:41.985Z,11.63
2023-04-25T18:55:11.722Z,11.68
2023-04-25T18:57:41.040Z,11.75
2023-04-25T19:00:11.440Z,11.75
2023-04-25T19:02:40.344Z,11.79
2023-04-25T19:05:12.060Z,11.79
2023-04-25T19:07:41.247Z,11.80
2023-04-25T19:10:11.072Z,11.79
2023-04-25T19:12:40.465Z,11.69
2023-04-25T19:15:10.032Z,11.65
2023-04-25T19:17:39.252Z,11.60
2023-04-25T19:20:09.627Z,11.55
2023-04-25T19:22:39.867Z,11.41
2023-04-25T19:25:11.013Z,11.27
2023-04-25T19:27:40.188Z,11.20
2023-04-25T19:30:11.085Z,11.05
2023-04-25T19:32:40.781Z,11.02
2023-04-25T19:35:11.795Z,10.94
2023-04-25T19:37:46.846Z,10.90
2023-04-25T19:40:17.286Z,10.78
2023-04-25T19:42:46.637Z,10.68
2023-04-25T19:45:15.423Z,10.62
2023-04-25T19:47:45.215Z,10.64
2023-04-25T19:50:14.292Z,10.62
2023-04-25T19:52:44.568Z,10.74
2023-04-25T19:55:13.361Z,10.74
2023-04-25T19:57:42.106Z,10.72
2023-04-25T20:00:14.623Z,10.86
2023-04-25T20:02:45.619Z,10.97
2023-04-25T20:05:16.586Z,11.00
2023-04-25T20:07:46.934Z,11.04
2023-04-25T20:10:16.743Z,11.03
2023-04-25T20:12:45.552Z,11.01
2023-04-25T20:15:14.588Z,10.99
2023-04-25T20:17:43.363Z,10.94
2023-04-25T20:20:13.241Z,10.88
2023-04-25T20:22:41.753Z,10.90
2023-04-25T20:25:13.646Z,10.90
2023-04-25T20:27:42.510Z,10.89
2023-04-25T20:30:12.271Z,10.92
2023-04-25T20:32:41.780Z,10.98
2023-04-25T20:35:11.309Z,11.01
2023-04-25T20:37:40.129Z,11.05
2023-04-25T20:40:12.054Z,11.10
2023-04-25T20:42:40.941Z,11.15
2023-04-25T20:45:13.569Z,11.17
2023-04-25T20:47:43.025Z,11.18
2023-04-25T20:50:12.603Z,11.23
2023-04-25T20:52:41.996Z,11.23
2023-04-25T20:55:12.300Z,11.25
2023-04-25T20:57:41.109Z,11.34
2023-04-25T21:00:17.146Z,11.38
2023-04-25T21:02:47.464Z,11.40
2023-04-25T21:05:16.718Z,11.38
2023-04-25T21:07:45.842Z,11.41
2023-04-25T21:10:16.293Z,11.43
2023-04-25T21:12:48.353Z,11.46
2023-04-25T21:15:20.601Z,11.49
2023-04-25T21:17:49.884Z,11.48
2023-04-25T21:20:20.586Z,11.49
2023-04-25T21:22:53.500Z,11.48
2023-04-25T21:25:31.274Z,11.44
2023-04-25T21:28:02.555Z,11.45
2023-04-25T21:30:31.412Z,11.39
2023-04-25T21:33:00.736Z,11.38
2023-04-25T21:35:29.787Z,11.36
2023-04-25T21:37:58.551Z,11.33
2023-04-25T21:40:28.848Z,11.30
2023-04-25T21:42:58.310Z,11.27
2023-04-25T21:45:29.268Z,11.25
2023-04-25T21:47:58.158Z,11.22
2023-04-25T21:50:27.008Z,11.21
2023-04-25T21:52:59.248Z,11.20
2023-04-25T21:55:29.875Z,11.21
2023-04-25T21:57:58.780Z,11.13
2023-04-25T22:00:27.926Z,11.07
2023-04-25T22:02:56.847Z,11.04
2023-04-25T22:05:26.763Z,11.07
2023-04-25T22:07:57.992Z,11.10
2023-04-25T22:10:28.604Z,11.01
2023-04-25T22:12:59.230Z,11.08
2023-04-25T22:15:29.722Z,11.06
2023-04-25T22:17:58.796Z,11.06
2023-04-25T22:20:28.203Z,11.01
2023-04-25T22:22:57.110Z,10.99
2023-04-25T22:25:26.304Z,10.99
2023-04-25T22:27:57.931Z,10.96
2023-04-25T22:30:27.925Z,10.90
2023-04-25T22:32:58.564Z,10.85
2023-04-25T22:35:27.423Z,10.79
2023-04-25T22:37:56.466Z,10.73
2023-04-25T22:40:25.498Z,10.69
2023-04-25T22:42:54.551Z,10.68
2023-04-25T22:45:24.720Z,10.63
2023-04-25T22:47:54.045Z,10.59
2023-04-25T22:50:22.976Z,10.55
2023-04-25T22:52:51.854Z,10.61
2023-04-25T22:55:20.621Z,10.62
2023-04-25T22:57:49.399Z,10.64
2023-04-25T23:00:20.489Z,10.60
2023-04-25T23:02:51.251Z,10.58
2023-04-25T23:05:20.249Z,10.57
2023-04-25T23:07:50.012Z,10.63
2023-04-25T23:10:20.084Z,10.62
2023-04-25T23:12:48.864Z,10.64
2023-04-25T23:15:18.169Z,10.61
2023-04-25T23:17:46.979Z,10.58
2023-04-25T23:20:17.407Z,10.52
2023-04-25T23:22:46.147Z,10.46
2023-04-25T23:25:15.106Z,10.52
2023-04-25T23:27:45.817Z,10.52
2023-04-25T23:30:15.485Z,10.49
2023-04-25T23:32:44.196Z,10.53
2023-04-25T23:35:13.363Z,10.49
2023-04-25T23:37:43.508Z,10.47
2023-04-25T23:40:13.480Z,10.44
2023-04-25T23:42:42.444Z,10.44
2023-04-25T23:45:11.552Z,10.33
2023-04-25T23:47:40.392Z,10.31
2023-04-25T23:50:10.240Z,10.24
2023-04-25T23:52:38.705Z,10.19
2023-04-25T23:55:09.984Z,10.15
2023-04-25T23:57:38.769Z,10.15
